Time;durP1;ratioP1;P1;durP2;ratioP2;P2;SDS_P1;SDS_P2;PMS_P1;PMS_P2;Temp;Humidity;BMP_temperature;BMP_pressure;BME280_temperature;BME280_humidity;BME280_pressure;Samples;Min_cycle;Max_cycle;Signal;HPM_P1;HPM_P2
2022/02/04 00:24:48;;;;;;;;;;;;;;;;;;7389535;19;916;-43
2022/02/04 00:27:20;;;;;;;;;;;;;;;;;;7389359;19;903;-43
2022/02/04 00:30:02;;;;;;;;;;;;;;;;;;7389357;19;926;-43
2022/02/04 00:32:32;;;;;;;;;;;;;;;;;;7388876;19;1078;-46
2022/02/04 00:36:09;;;;;;;;;;;;;;;;;;7388386;19;946;-47
2022/02/04 00:40:44;;;;;;;;;;;;;;;;;;7388399;19;983;-42
2022/02/04 00:43:12;;;;;;;;;;;;;;;;;;7387387;19;1849;-43
2022/02/04 00:45:48;;;;;;;;;;;;;;;;;;7391779;19;1221;-44
2022/02/04 00:48:54;;;;;;;;;;;;;;;;;;7388325;19;1510;-45
2022/02/04 01:26:09;;;;;;;;;;;;;;;;;;7392405;19;1071;-43
2022/02/04 01:28:38;;;;;;;;;;;;;;;;;;7395082;19;1282;-43
2022/02/04 01:31:06;;;;;;;;;;;;;;;;;;7394963;19;939;-43
2022/02/04 01:33:35;;;;;;;;;;;;;;;;;;7394695;19;955;-42
2022/02/04 01:36:02;;;;;;;;;;;;;;;;;;7394165;19;906;-45
2022/02/04 01:38:29;;;;;;;;;;;;;;;;;;7394088;19;955;-43
2022/02/04 01:40:57;;;;;;;;;;;;;;;;;;7392623;19;1339;-44
2022/02/04 01:43:25;;;;;;;;;;;;;;;;;;7392813;19;1875;-46
2022/02/04 01:45:53;;;;;;;;;;;;;;;;;;7398208;19;1110;-44
2022/02/04 01:48:20;;;;;;;;;;;;;;;;;;7393733;19;946;-44
2022/02/04 01:50:49;;;;;;;;;;;;;;;;;;7394066;19;1002;-46
2022/02/04 01:53:17;;;;;;;;;;;;;;;;;;7394365;19;939;-41
2022/02/04 01:55:45;;;;;;;;;;;;;;;;;;7393308;19;1055;-42
2022/02/04 01:58:12;;;;;;;;;;;;;;;;;;7393494;19;915;-43
2022/02/04 02:00:40;;;;;;;;;;;;;;;;;;7392046;19;1054;-41
2022/02/04 02:03:08;;;;;;;;;;;;;;;;;;7396087;19;1845;-45
2022/02/04 02:05:35;;;;;;;;;;;;;;;;;;7393450;19;906;-44
2022/02/04 02:08:04;;;;;;;;;;;;;;;;;;7392937;19;959;-42
2022/02/04 02:10:31;;;;;;;;;;;;;;;;;;7392931;19;918;-42
2022/02/04 02:15:52;;;;;;;;;;;;;;;;;;7392630;19;851;-41
2022/02/04 02:48:34;;;;;;;;;;;;;;;;;;7391952;19;947;-42
2022/02/04 02:51:26;;;;;;;;;;;;;;;;;;7391700;19;1478;-42
2022/02/04 02:54:08;;;;;;;;;;;;;;;;;;7391489;19;1580;-42
2022/02/04 02:59:12;;;;;;;;;;;;;;;;;;7391889;19;907;-47
2022/02/04 03:01:45;;;;;;;;;;;;;;;;;;7389882;19;1189;-44
2022/02/04 03:04:15;;;;;;;;;;;;;;;;;;7389454;19;1904;-43
2022/02/04 03:06:44;;;;;;;;;;;;;;;;;;7391009;19;876;-42
2022/02/04 03:09:11;;;;;;;;;;;;;;;;;;7391412;19;847;-43
2022/02/04 03:11:39;;;;;;;;;;;;;;;;;;7391057;19;900;-45
2022/02/04 03:14:06;;;;;;;;;;;;;;;;;;7390825;19;880;-42
2022/02/04 03:16:34;;;;;;;;;;;;;;;;;;7390886;19;938;-42
2022/02/04 03:19:03;;;;;;;;;;;;;;;;;;7390448;19;939;-44
2022/02/04 03:21:43;;;;;;;;;;;;;;;;;;7390878;19;892;-43
2022/02/04 03:24:14;;;;;;;;;;;;;;;;;;7388896;19;1904;-48
2022/02/04 03:26:55;;;;;;;;;;;;;;;;;;7390738;19;943;-45
2022/02/04 03:29:28;;;;;;;;;;;;;;;;;;7390813;19;951;-43
2022/02/04 03:32:02;;;;;;;;;;;;;;;;;;7390212;19;978;-43
2022/02/04 03:34:29;;;;;;;;;;;;;;;;;;7390515;19;891;-45
2022/02/04 03:36:56;;;;;;;;;;;;;;;;;;7390049;19;994;-44
2022/02/04 03:39:23;;;;;;;;;;;;;;;;;;7390258;19;1061;-42
2022/02/04 03:41:50;;;;;;;;;;;;;;;;;;7388207;19;963;-45
2022/02/04 03:44:18;;;;;;;;;;;;;;;;;;7390269;19;1854;-43
2022/02/04 03:46:45;;;;;;;;;;;;;;;;;;7390306;19;869;-44
2022/02/04 03:49:12;;;;;;;;;;;;;;;;;;7389960;19;891;-44
2022/02/04 03:51:39;;;;;;;;;;;;;;;;;;7390104;19;991;-43
2022/02/04 03:54:06;;;;;;;;;;;;;;;;;;7390501;19;986;-45
2022/02/04 03:56:33;;;;;;;;;;;;;;;;;;7386875;19;1074;-48
2022/02/04 03:59:00;;;;;;;;;;;;;;;;;;7389836;19;1053;-46
2022/02/04 04:01:28;;;;;;;;;;;;;;;;;;7389734;19;828;-43
2022/02/04 04:03:55;;;;;;;;;;;;;;;;;;7389073;19;1846;-43
2022/02/04 04:06:22;;;;;;;;;;;;;;;;;;7389209;19;915;-44
2022/02/04 04:08:53;;;;;;;;;;;;;;;;;;7389453;19;1006;-43
2022/02/04 04:11:20;;;;;;;;;;;;;;;;;;7389878;19;896;-43
2022/02/04 04:13:49;;;;;;;;;;;;;;;;;;7389876;19;888;-42
2022/02/04 04:16:18;;;;;;;;;;;;;;;;;;7389688;19;879;-45
2022/02/04 04:18:45;;;;;;;;;;;;;;;;;;7389948;19;878;-44
2022/02/04 04:21:12;;;;;;;;;;;;;;;;;;7389152;19;1038;-43
2022/02/04 04:23:39;;;;;;;;;;;;;;;;;;7388920;19;1846;-45
2022/02/04 04:26:07;;;;;;;;;;;;;;;;;;7390119;19;2035;-49
2022/02/04 04:28:34;;;;;;;;;;;;;;;;;;7389315;19;934;-45
2022/02/04 04:31:01;;;;;;;;;;;;;;;;;;7388568;19;903;-41
2022/02/04 04:33:29;;;;;;;;;;;;;;;;;;7388971;19;935;-44
2022/02/04 04:35:56;;;;;;;;;;;;;;;;;;7387236;19;867;-44
2022/02/04 04:38:34;;;;;;;;;;;;;;;;;;7388663;19;878;-43
2022/02/04 05:29:50;;;;;;;;;;;;;;;;;;7394361;19;1010;-42
2022/02/04 05:32:18;;;;;;;;;;;;;;;;;;7395285;19;959;-43
2022/02/04 05:34:47;;;;;;;;;;;;;;;;;;7395374;19;1019;-43
2022/02/04 05:37:15;;;;;;;;;;;;;;;;;;7391246;19;1336;-48
2022/02/04 05:40:01;;;;;;;;;;;;;;;;;;7399245;19;1086;-47
2022/02/04 05:42:32;;;;;;;;;;;;;;;;;;7392587;19;1764;-44
2022/02/04 05:45:07;;;;;;;;;;;;;;;;;;7390092;19;1842;-43
2022/02/04 05:47:35;;;;;;;;;;;;;;;;;;7393659;19;939;-44
2022/02/04 05:50:54;;;;;;;;;;;;;;;;;;7390875;19;900;-46
2022/02/04 06:00:50;;;;;;;;;;;;;;;;;;7392818;19;1255;-43
2022/02/04 06:22:22;;;;;;;;;;;;;;;;;;7393298;19;910;-43
2022/02/04 06:24:50;;;;;;;;;;;;;;;;;;7392102;19;1850;-42
2022/02/04 06:27:18;;;;;;;;;;;;;;;;;;7391421;19;982;-48
2022/02/04 06:29:45;;;;;;;;;;;;;;;;;;7393555;19;863;-48
2022/02/04 06:32:15;;;;;;;;;;;;;;;;;;7392780;19;1009;-42
2022/02/04 06:34:42;;;;;;;;;;;;;;;;;;7392786;19;864;-45
2022/02/04 06:37:10;;;;;;;;;;;;;;;;;;7392497;19;895;-44
2022/02/04 06:39:37;;;;;;;;;;;;;;;;;;7392574;19;935;-43
2022/02/04 06:42:04;;;;;;;;;;;;;;;;;;7391864;19;1017;-46
2022/02/04 06:44:31;;;;;;;;;;;;;;;;;;7392981;19;1872;-45
2022/02/04 06:46:59;;;;;;;;;;;;;;;;;;7388345;19;1006;-47
2022/02/04 06:49:26;;;;;;;;;;;;;;;;;;7390209;19;1029;-43
2022/02/04 06:51:53;;;;;;;;;;;;;;;;;;7390320;19;951;-43
2022/02/04 06:54:20;;;;;;;;;;;;;;;;;;7392647;19;1077;-45
2022/02/04 06:56:47;;;;;;;;;;;;;;;;;;7392632;19;1010;-42
2022/02/04 06:59:16;;;;;;;;;;;;;;;;;;7392395;19;1441;-43
2022/02/04 07:01:43;;;;;;;;;;;;;;;;;;7390934;19;930;-43
2022/02/04 07:04:12;;;;;;;;;;;;;;;;;;7391207;19;1853;-43
2022/02/04 07:06:43;;;;;;;;;;;;;;;;;;7391731;19;879;-45
2022/02/04 07:09:21;;;;;;;;;;;;;;;;;;7391339;19;1021;-42
2022/02/04 07:17:27;;;;;;;;;;;;;;;;;;7389395;19;934;-43
2022/02/04 07:19:56;;;;;;;;;;;;;;;;;;7390923;19;951;-42
2022/02/04 07:22:27;;;;;;;;;;;;;;;;;;7390879;19;978;-42
2022/02/04 07:24:56;;;;;;;;;;;;;;;;;;7389419;19;1839;-42
2022/02/04 07:27:24;;;;;;;;;;;;;;;;;;7391310;19;935;-46
2022/02/04 07:29:53;;;;;;;;;;;;;;;;;;7390506;19;862;-44
2022/02/04 07:32:35;;;;;;;;;;;;;;;;;;7391164;19;1002;-44
2022/02/04 07:40:54;;;;;;;;;;;;;;;;;;7390065;19;1069;-43
2022/02/04 07:43:25;;;;;;;;;;;;;;;;;;7390406;19;886;-42
2022/02/04 07:45:53;;;;;;;;;;;;;;;;;;7393053;19;1849;-42
2022/02/04 07:48:20;;;;;;;;;;;;;;;;;;7390905;19;926;-44
2022/02/04 07:50:48;;;;;;;;;;;;;;;;;;7390775;19;966;-43
2022/02/04 07:53:15;;;;;;;;;;;;;;;;;;7390244;19;942;-42
2022/02/04 07:55:43;;;;;;;;;;;;;;;;;;7388903;19;1048;-42
2022/02/04 07:58:11;;;;;;;;;;;;;;;;;;7389802;19;910;-44
2022/02/04 08:00:39;;;;;;;;;;;;;;;;;;7389988;19;1057;-44
2022/02/04 08:03:45;;;;;;;;;;;;;;;;;;7389882;19;879;-44
2022/02/04 08:06:12;;;;;;;;;;;;;;;;;;7388788;19;1416;-43
2022/02/04 08:38:26;;;;;;;;;;;;;;;;;;7395891;19;1022;-42
2022/02/04 08:47:08;;;;;;;;;;;;;;;;;;7395952;19;909;-45
2022/02/04 08:55:05;;;;;;;;;;;;;;;;;;7391763;19;1228;-43
2022/02/04 09:00:35;;;;;;;;;;;;;;;;;;7395667;19;1117;-47
2022/02/04 09:03:13;;;;;;;;;;;;;;;;;;7395656;19;910;-54
2022/02/04 09:05:43;;;;;;;;;;;;;;;;;;7393278;19;1945;-51
2022/02/04 09:08:25;;;;;;;;;;;;;;;;;;7394779;19;896;-44
2022/02/04 09:10:53;;;;;;;;;;;;;;;;;;7396155;19;875;-42
2022/02/04 09:19:01;;;;;;;;;;;;;;;;;;7394379;19;1118;-42
2022/02/04 09:24:24;;;;;;;;;;;;;;;;;;7391018;19;1850;-42
2022/02/04 09:26:52;;;;;;;;;;;;;;;;;;7394998;19;1287;-43
2022/02/04 09:29:19;;;;;;;;;;;;;;;;;;7394849;19;891;-43
2022/02/04 09:31:46;;;;;;;;;;;;;;;;;;7395025;19;868;-42
2022/02/04 09:34:14;;;;;;;;;;;;;;;;;;7394942;19;938;-42
2022/02/04 09:36:41;;;;;;;;;;;;;;;;;;7394926;19;966;-42
2022/02/04 09:39:09;;;;;;;;;;;;;;;;;;7393714;19;870;-43
2022/02/04 09:41:36;;;;;;;;;;;;;;;;;;7393469;19;1002;-45
2022/02/04 09:44:03;;;;;;;;;;;;;;;;;;7394683;19;1846;-42
2022/02/04 09:46:36;;;;;;;;;;;;;;;;;;7394238;19;979;-46
2022/02/04 09:49:06;;;;;;;;;;;;;;;;;;7394302;19;905;-42
2022/02/04 10:22:20;;;;;;;;;;;;;;;;;;7392451;19;890;-53
2022/02/04 10:25:02;;;;;;;;;;;;;;;;;;7392181;19;1815;-51
2022/02/04 10:27:33;;;;;;;;;;;;;;;;;;7393741;19;1322;-50
2022/02/04 10:30:03;;;;;;;;;;;;;;;;;;7393476;19;1154;-44
2022/02/04 10:32:30;;;;;;;;;;;;;;;;;;7393205;19;930;-43
2022/02/04 10:35:04;;;;;;;;;;;;;;;;;;7391966;19;1346;-43
2022/02/04 10:37:34;;;;;;;;;;;;;;;;;;7392215;19;1018;-44
2022/02/04 10:40:27;;;;;;;;;;;;;;;;;;7391960;19;1066;-45
2022/02/04 10:45:34;;;;;;;;;;;;;;;;;;7393385;19;1858;-43
2022/02/04 10:48:30;;;;;;;;;;;;;;;;;;7391038;19;965;-43
2022/02/04 10:56:51;;;;;;;;;;;;;;;;;;7389406;19;1090;-44
2022/02/04 10:59:48;;;;;;;;;;;;;;;;;;7392565;19;1775;-44
2022/02/04 11:50:00;;;;;;;;;;;;;;;;;;7389816;19;883;-44
2022/02/04 11:52:06;;;;;;;;;;;;;;;;;;7393487;19;1594;-44
2022/02/04 11:54:40;;;;;;;;;;;;;;;;;;7389305;19;1404;-43
2022/02/04 11:57:08;;;;;;;;;;;;;;;;;;7389780;19;871;-44
2022/02/04 11:59:35;;;;;;;;;;;;;;;;;;7390696;19;961;-44
2022/02/04 12:02:21;;;;;;;;;;;;;;;;;;7389615;19;871;-44
2022/02/04 12:04:48;;;;;;;;;;;;;;;;;;7388896;19;1854;-43
2022/02/04 12:07:32;;;;;;;;;;;;;;;;;;7389034;19;1168;-43
2022/02/04 12:10:17;;;;;;;;;;;;;;;;;;7389531;19;973;-46
2022/02/04 12:12:56;;;;;;;;;;;;;;;;;;7387076;19;1223;-43
2022/02/04 12:15:33;;;;;;;;;;;;;;;;;;7389167;19;887;-45
2022/02/04 12:18:00;;;;;;;;;;;;;;;;;;7388344;19;1387;-47
2022/02/04 12:20:56;;;;;;;;;;;;;;;;;;7388559;19;919;-50
2022/02/04 12:23:31;;;;;;;;;;;;;;;;;;7388614;19;1026;-44
2022/02/04 12:26:01;;;;;;;;;;;;;;;;;;7392096;19;1815;-44
2022/02/04 12:28:38;;;;;;;;;;;;;;;;;;7388600;19;916;-47
2022/02/04 12:31:10;;;;;;;;;;;;;;;;;;7388975;19;942;-50
2022/02/04 12:33:40;;;;;;;;;;;;;;;;;;7388571;19;948;-43
2022/02/04 12:36:16;;;;;;;;;;;;;;;;;;7386557;19;1344;-43
2022/02/04 12:38:44;;;;;;;;;;;;;;;;;;7388652;19;951;-52
2022/02/04 12:41:19;;;;;;;;;;;;;;;;;;7388551;19;866;-42
2022/02/04 12:43:50;;;;;;;;;;;;;;;;;;7388551;19;1103;-42
2022/02/04 12:46:18;;;;;;;;;;;;;;;;;;7386770;19;1853;-43
2022/02/04 12:49:05;;;;;;;;;;;;;;;;;;7388715;19;905;-44
2022/02/04 12:51:58;;;;;;;;;;;;;;;;;;7388410;19;1380;-43
2022/02/04 12:54:25;;;;;;;;;;;;;;;;;;7387705;19;1042;-45
2022/02/04 12:57:55;;;;;;;;;;;;;;;;;;7388134;19;930;-44
2022/02/04 13:00:05;;;;;;;;;;;;;;;;;;7387239;19;1558;-43
2022/02/04 13:07:52;;;;;;;;;;;;;;;;;;7387548;19;1033;-45
2022/02/04 13:10:20;;;;;;;;;;;;;;;;;;7388369;19;983;-43
2022/02/04 13:12:54;;;;;;;;;;;;;;;;;;7388517;19;951;-43
2022/02/04 13:15:21;;;;;;;;;;;;;;;;;;7390750;19;920;-43
2022/02/04 13:17:49;;;;;;;;;;;;;;;;;;7394457;19;863;-46
2022/02/04 13:20:20;;;;;;;;;;;;;;;;;;7395739;19;1021;-44
2022/02/04 13:22:55;;;;;;;;;;;;;;;;;;7395505;19;1014;-43
2022/02/04 13:25:23;;;;;;;;;;;;;;;;;;7391489;19;1846;-44
2022/02/04 13:28:11;;;;;;;;;;;;;;;;;;7393987;19;1268;-42
2022/02/04 13:30:41;;;;;;;;;;;;;;;;;;7389530;19;943;-49
2022/02/04 13:33:15;;;;;;;;;;;;;;;;;;7393961;19;884;-44
2022/02/04 13:35:50;;;;;;;;;;;;;;;;;;7394646;19;1015;-47
2022/02/04 13:38:29;;;;;;;;;;;;;;;;;;7394743;19;930;-42
2022/02/04 13:41:36;;;;;;;;;;;;;;;;;;7393621;19;937;-47
2022/02/04 13:46:36;;;;;;;;;;;;;;;;;;7390734;19;1877;-45
2022/02/04 13:51:46;;;;;;;;;;;;;;;;;;7393268;19;978;-45
2022/02/04 13:54:35;;;;;;;;;;;;;;;;;;7393390;19;871;-45
2022/02/04 13:59:59;;;;;;;;;;;;;;;;;;7393906;19;1247;-42
2022/02/04 14:02:35;;;;;;;;;;;;;;;;;;7393463;19;1050;-50
2022/02/04 14:05:03;;;;;;;;;;;;;;;;;;7393260;19;1850;-44
2022/02/04 14:07:38;;;;;;;;;;;;;;;;;;7393692;19;852;-50
2022/02/04 14:10:18;;;;;;;;;;;;;;;;;;7393456;19;895;-46
2022/02/04 14:13:00;;;;;;;;;;;;;;;;;;7395350;19;1216;-49
2022/02/04 14:15:29;;;;;;;;;;;;;;;;;;7393122;19;954;-48
2022/02/04 14:17:57;;;;;;;;;;;;;;;;;;7392409;19;888;-46
2022/02/04 14:20:24;;;;;;;;;;;;;;;;;;7390830;19;1012;-44
2022/02/04 14:22:51;;;;;;;;;;;;;;;;;;7393267;19;914;-42
2022/02/04 14:25:19;;;;;;;;;;;;;;;;;;7393318;19;1814;-42
2022/02/04 14:27:50;;;;;;;;;;;;;;;;;;7390529;19;896;-46
2022/02/04 14:30:23;;;;;;;;;;;;;;;;;;7393715;19;951;-44
2022/02/04 14:32:59;;;;;;;;;;;;;;;;;;7393102;19;1330;-44
2022/02/04 14:35:46;;;;;;;;;;;;;;;;;;7392126;19;993;-47
2022/02/04 14:49:33;;;;;;;;;;;;;;;;;;7392667;19;879;-43
2022/02/04 14:52:20;;;;;;;;;;;;;;;;;;7391463;19;931;-47
2022/02/04 15:03:13;;;;;;;;;;;;;;;;;;7392078;19;887;-46
2022/02/04 15:05:45;;;;;;;;;;;;;;;;;;7390961;19;1846;-50
2022/02/04 15:08:19;;;;;;;;;;;;;;;;;;7391307;19;959;-49
2022/02/04 15:10:48;;;;;;;;;;;;;;;;;;7390756;19;1379;-47
2022/02/04 15:13:17;;;;;;;;;;;;;;;;;;7391642;19;889;-43
2022/02/04 15:15:44;;;;;;;;;;;;;;;;;;7390890;19;863;-45
2022/02/04 15:18:12;;;;;;;;;;;;;;;;;;7390904;19;942;-49
2022/02/04 15:20:39;;;;;;;;;;;;;;;;;;7390650;19;899;-53
2022/02/04 15:23:10;;;;;;;;;;;;;;;;;;7390664;19;955;-46
2022/02/04 15:25:37;;;;;;;;;;;;;;;;;;7390662;19;1867;-43
2022/02/04 15:30:39;;;;;;;;;;;;;;;;;;7391653;19;949;-42
2022/02/04 15:33:06;;;;;;;;;;;;;;;;;;7390721;19;887;-43
2022/02/04 15:35:34;;;;;;;;;;;;;;;;;;7390307;19;962;-44
2022/02/04 15:38:01;;;;;;;;;;;;;;;;;;7388451;19;938;-46
2022/02/04 15:40:28;;;;;;;;;;;;;;;;;;7390096;19;942;-46
2022/02/04 15:43:01;;;;;;;;;;;;;;;;;;7390840;19;827;-45
2022/02/04 16:06:14;;;;;;;;;;;;;;;;;;7388804;19;1856;-48
2022/02/04 16:08:41;;;;;;;;;;;;;;;;;;7389474;19;932;-46
2022/02/04 16:14:15;;;;;;;;;;;;;;;;;;7388884;19;994;-51
2022/02/04 16:16:54;;;;;;;;;;;;;;;;;;7388128;19;1054;-46
2022/02/04 16:29:48;;;;;;;;;;;;;;;;;;7389815;19;842;-53
2022/02/04 16:32:17;;;;;;;;;;;;;;;;;;7388372;19;859;-51
2022/02/04 16:34:52;;;;;;;;;;;;;;;;;;7389839;19;959;-52
2022/02/04 16:37:33;;;;;;;;;;;;;;;;;;7389453;19;1268;-49
2022/02/04 16:40:03;;;;;;;;;;;;;;;;;;7388532;19;927;-49
2022/02/04 16:42:31;;;;;;;;;;;;;;;;;;7389239;19;947;-44
2022/02/04 16:44:59;;;;;;;;;;;;;;;;;;7390708;19;1181;-45
2022/02/04 16:47:26;;;;;;;;;;;;;;;;;;7387039;19;1866;-50
2022/02/04 16:49:54;;;;;;;;;;;;;;;;;;7392721;19;856;-51
2022/02/04 16:52:22;;;;;;;;;;;;;;;;;;7396196;19;939;-48
2022/02/04 16:54:50;;;;;;;;;;;;;;;;;;7395608;19;1050;-42
2022/02/04 16:57:17;;;;;;;;;;;;;;;;;;7396079;19;914;-51
2022/02/04 16:59:44;;;;;;;;;;;;;;;;;;7395931;19;878;-42
2022/02/04 17:02:11;;;;;;;;;;;;;;;;;;7396110;19;919;-49
2022/02/04 17:04:41;;;;;;;;;;;;;;;;;;7395648;19;863;-43
2022/02/04 17:07:17;;;;;;;;;;;;;;;;;;7393521;19;1861;-49
2022/02/04 17:09:48;;;;;;;;;;;;;;;;;;7393448;19;1306;-49
2022/02/04 17:12:25;;;;;;;;;;;;;;;;;;7394915;19;1057;-48
2022/02/04 17:14:53;;;;;;;;;;;;;;;;;;7395589;19;950;-46
2022/02/04 17:17:24;;;;;;;;;;;;;;;;;;7395484;19;887;-49
2022/02/04 17:20:04;;;;;;;;;;;;;;;;;;7395843;19;1014;-41
2022/02/04 17:22:33;;;;;;;;;;;;;;;;;;7395272;19;935;-46
2022/02/04 17:25:07;;;;;;;;;;;;;;;;;;7395242;19;911;-49
2022/02/04 17:27:35;;;;;;;;;;;;;;;;;;7393448;19;1862;-51
2022/02/04 17:30:07;;;;;;;;;;;;;;;;;;7395170;19;1077;-46
2022/02/04 17:32:35;;;;;;;;;;;;;;;;;;7394237;19;875;-51
2022/02/04 17:35:02;;;;;;;;;;;;;;;;;;7393302;19;986;-42
2022/02/04 17:37:29;;;;;;;;;;;;;;;;;;7395204;19;962;-47
2022/02/04 17:39:57;;;;;;;;;;;;;;;;;;7394457;19;900;-50
2022/02/04 17:42:26;;;;;;;;;;;;;;;;;;7394710;19;922;-45
2022/02/04 17:44:54;;;;;;;;;;;;;;;;;;7396818;19;1145;-43
2022/02/04 17:47:25;;;;;;;;;;;;;;;;;;7393969;19;1854;-49
2022/02/04 17:52:35;;;;;;;;;;;;;;;;;;7393915;19;1014;-43
2022/02/04 17:55:09;;;;;;;;;;;;;;;;;;7393045;19;1072;-44
2022/02/04 17:57:54;;;;;;;;;;;;;;;;;;7394407;19;944;-42
2022/02/04 18:08:03;;;;;;;;;;;;;;;;;;7390816;19;1842;-43
2022/02/04 18:10:31;;;;;;;;;;;;;;;;;;7393207;19;927;-49
2022/02/04 18:12:59;;;;;;;;;;;;;;;;;;7393089;19;1022;-53
2022/02/04 18:15:26;;;;;;;;;;;;;;;;;;7393356;19;857;-49
2022/02/04 18:17:54;;;;;;;;;;;;;;;;;;7393025;19;866;-45
2022/02/04 18:20:21;;;;;;;;;;;;;;;;;;7392526;19;986;-44
2022/02/04 18:22:49;;;;;;;;;;;;;;;;;;7392345;19;942;-47
2022/02/04 18:25:18;;;;;;;;;;;;;;;;;;7393175;19;906;-46
2022/02/04 18:27:48;;;;;;;;;;;;;;;;;;7390833;19;1838;-43
2022/02/04 18:30:17;;;;;;;;;;;;;;;;;;7393049;19;958;-48
2022/02/04 18:32:47;;;;;;;;;;;;;;;;;;7393031;19;947;-46
2022/02/04 18:35:15;;;;;;;;;;;;;;;;;;7392021;19;883;-43
2022/02/04 18:37:48;;;;;;;;;;;;;;;;;;7392957;19;906;-53
2022/02/04 18:45:28;;;;;;;;;;;;;;;;;;7396149;19;1113;-42
2022/02/04 18:48:02;;;;;;;;;;;;;;;;;;7390856;19;1849;-46
2022/02/04 18:53:32;;;;;;;;;;;;;;;;;;7392001;19;952;-48
2022/02/04 18:56:14;;;;;;;;;;;;;;;;;;7389942;19;1096;-46
2022/02/04 18:58:44;;;;;;;;;;;;;;;;;;7392206;19;923;-46
2022/02/04 19:01:14;;;;;;;;;;;;;;;;;;7391803;19;868;-47
2022/02/04 19:03:52;;;;;;;;;;;;;;;;;;7392218;19;915;-46
2022/02/04 19:06:28;;;;;;;;;;;;;;;;;;7392515;19;1856;-45
2022/02/04 19:08:58;;;;;;;;;;;;;;;;;;7395214;19;914;-45
2022/02/04 19:11:39;;;;;;;;;;;;;;;;;;7390970;19;871;-42
2022/02/04 19:14:14;;;;;;;;;;;;;;;;;;7388518;19;875;-48
2022/02/04 19:17:10;;;;;;;;;;;;;;;;;;7391748;19;954;-43
2022/02/04 19:19:45;;;;;;;;;;;;;;;;;;7391169;19;1627;-52
2022/02/04 19:24:43;;;;;;;;;;;;;;;;;;7391072;19;939;-50
2022/02/04 19:27:40;;;;;;;;;;;;;;;;;;7389366;19;1853;-45
2022/02/04 19:30:10;;;;;;;;;;;;;;;;;;7390591;19;919;-47
2022/02/04 19:32:39;;;;;;;;;;;;;;;;;;7391081;19;913;-46
2022/02/04 19:35:09;;;;;;;;;;;;;;;;;;7390516;19;1107;-43
2022/02/04 19:37:36;;;;;;;;;;;;;;;;;;7390364;19;1030;-46
2022/02/04 19:40:04;;;;;;;;;;;;;;;;;;7389549;19;907;-45
2022/02/04 19:42:34;;;;;;;;;;;;;;;;;;7390646;19;886;-46
2022/02/04 19:45:07;;;;;;;;;;;;;;;;;;7393531;19;1226;-49
2022/02/04 19:47:57;;;;;;;;;;;;;;;;;;7389746;19;1865;-42
2022/02/04 19:50:41;;;;;;;;;;;;;;;;;;7393990;19;1029;-43
2022/02/04 20:13:20;;;;;;;;;;;;;;;;;;7389556;19;1069;-44
2022/02/04 20:23:36;;;;;;;;;;;;;;;;;;7388758;19;916;-51
2022/02/04 20:26:05;;;;;;;;;;;;;;;;;;7397002;19;919;-52
2022/02/04 20:28:33;;;;;;;;;;;;;;;;;;7394546;19;1841;-47
2022/02/04 20:31:00;;;;;;;;;;;;;;;;;;7396730;19;891;-46
2022/02/04 20:33:28;;;;;;;;;;;;;;;;;;7395094;19;1162;-45
2022/02/04 20:35:56;;;;;;;;;;;;;;;;;;7396110;19;982;-44
2022/02/04 20:38:30;;;;;;;;;;;;;;;;;;7397580;19;903;-44
2022/02/04 20:41:08;;;;;;;;;;;;;;;;;;7397143;19;1016;-41
2022/02/04 20:43:36;;;;;;;;;;;;;;;;;;7396134;19;1050;-42
2022/02/04 20:46:03;;;;;;;;;;;;;;;;;;7395716;19;898;-43
2022/02/04 20:48:34;;;;;;;;;;;;;;;;;;7394211;19;1861;-45
2022/02/04 20:51:05;;;;;;;;;;;;;;;;;;7396230;19;1005;-42
2022/02/04 20:53:34;;;;;;;;;;;;;;;;;;7394960;19;947;-43
2022/02/04 20:56:01;;;;;;;;;;;;;;;;;;7393496;19;1139;-42
2022/02/04 20:58:29;;;;;;;;;;;;;;;;;;7396067;19;925;-44
2022/02/04 21:00:56;;;;;;;;;;;;;;;;;;7395613;19;907;-45
2022/02/04 21:03:25;;;;;;;;;;;;;;;;;;7396103;19;1058;-42
2022/02/04 21:06:02;;;;;;;;;;;;;;;;;;7394807;19;1054;-42
2022/02/04 21:14:03;;;;;;;;;;;;;;;;;;7395289;19;947;-44
2022/02/04 21:16:32;;;;;;;;;;;;;;;;;;7395342;19;1345;-46
2022/02/04 21:19:00;;;;;;;;;;;;;;;;;;7394958;19;990;-42
2022/02/04 21:21:28;;;;;;;;;;;;;;;;;;7395053;19;881;-46
2022/02/04 21:23:55;;;;;;;;;;;;;;;;;;7395191;19;1010;-42
2022/02/04 21:26:22;;;;;;;;;;;;;;;;;;7395512;19;1073;-44
2022/02/04 21:28:51;;;;;;;;;;;;;;;;;;7393125;19;2211;-45
2022/02/04 21:31:18;;;;;;;;;;;;;;;;;;7394994;19;930;-45
2022/02/04 21:34:11;;;;;;;;;;;;;;;;;;7394732;19;943;-43
2022/02/04 21:39:19;;;;;;;;;;;;;;;;;;7395548;19;938;-51
2022/02/04 21:41:48;;;;;;;;;;;;;;;;;;7395328;19;930;-46
2022/02/04 21:44:15;;;;;;;;;;;;;;;;;;7395642;19;1193;-50
2022/02/04 21:46:43;;;;;;;;;;;;;;;;;;7394310;19;1302;-53
2022/02/04 21:49:10;;;;;;;;;;;;;;;;;;7392645;19;1854;-44
2022/02/04 21:51:38;;;;;;;;;;;;;;;;;;7394950;19;973;-42
2022/02/04 21:54:05;;;;;;;;;;;;;;;;;;7394432;19;958;-44
2022/02/04 21:56:32;;;;;;;;;;;;;;;;;;7391837;19;1027;-42
2022/02/04 21:58:59;;;;;;;;;;;;;;;;;;7394255;19;883;-42
2022/02/04 22:01:27;;;;;;;;;;;;;;;;;;7394060;19;867;-47
2022/02/04 22:03:54;;;;;;;;;;;;;;;;;;7395755;19;1081;-43
2022/02/04 22:06:21;;;;;;;;;;;;;;;;;;7394215;19;920;-42
2022/02/04 22:12:08;;;;;;;;;;;;;;;;;;7390844;19;1233;-42
2022/02/04 22:14:54;;;;;;;;;;;;;;;;;;7393329;19;1613;-43
2022/02/04 22:17:27;;;;;;;;;;;;;;;;;;7393190;19;1014;-48
2022/02/04 22:22:44;;;;;;;;;;;;;;;;;;7393732;19;907;-44
2022/02/04 22:25:11;;;;;;;;;;;;;;;;;;7393564;19;925;-45
2022/02/04 22:27:39;;;;;;;;;;;;;;;;;;7393069;19;1850;-43
2022/02/04 22:30:11;;;;;;;;;;;;;;;;;;7392201;19;962;-44
2022/02/04 22:32:49;;;;;;;;;;;;;;;;;;7393089;19;1070;-44
2022/02/04 22:35:27;;;;;;;;;;;;;;;;;;7392352;19;967;-45
2022/02/04 22:59:24;;;;;;;;;;;;;;;;;;7391833;19;891;-43
2022/02/04 23:01:51;;;;;;;;;;;;;;;;;;7393074;19;895;-44
2022/02/04 23:04:20;;;;;;;;;;;;;;;;;;7392234;19;858;-43
2022/02/04 23:06:48;;;;;;;;;;;;;;;;;;7391572;19;962;-43
2022/02/04 23:09:25;;;;;;;;;;;;;;;;;;7389682;19;1861;-46
2022/02/04 23:11:53;;;;;;;;;;;;;;;;;;7392168;19;855;-42
2022/02/04 23:14:31;;;;;;;;;;;;;;;;;;7392383;19;1231;-43
2022/02/04 23:17:04;;;;;;;;;;;;;;;;;;7395940;19;970;-44
2022/02/04 23:19:45;;;;;;;;;;;;;;;;;;7390810;19;953;-43
2022/02/04 23:22:17;;;;;;;;;;;;;;;;;;7391088;19;922;-43
2022/02/04 23:24:59;;;;;;;;;;;;;;;;;;7391848;19;881;-45
2022/02/04 23:27:28;;;;;;;;;;;;;;;;;;7390429;19;1858;-43
2022/02/04 23:51:27;;;;;;;;;;;;;;;;;;7390094;19;993;-45
2022/02/04 23:53:55;;;;;;;;;;;;;;;;;;7389969;19;990;-42
2022/02/04 23:56:22;;;;;;;;;;;;;;;;;;7388743;19;1168;-45
2022/02/04 23:59:12;;;;;;;;;;;;;;;;;;7389217;19;944;-42
